Albany, NY

9:08 PM EDT on September 19, 2014 (GMT -0400)
WNYT TV - Menands | Change Station
CLOSE
Current Station
Personal Weather Station
Location: 715 North Pearl Street Albany, NY
Elevation: 50 ft
Nearby Weather Stations

Elev 50 ft 42.68 °N, 73.74 °W | Updated 8 seconds ago

Clear
Clear
55.0 °F
Feels Like 55.0 °F
N
5.0
Wind Variable Wind from SSE
Gusts 6.0 mph

Today
High -- | Low -- °F
--% Chance of Precip.
Yesterday
High -- | Low -- °F
Precip. -- in
6:39 AM 6:57 PM
Waning Crescent, 15% visible
Pressure 30.34 in
Visibility 10.0 miles
Clouds Clear
Dew Point 42 °F
Humidity 62%
Rainfall 0.00 in
Snow Depth Not available.
UV 0 out of 12
Pollen 3.00 out of 12
PM2.5 Good
Flu Activity Not available.
METAR KALB 200051Z 14003KT 10SM CLR 12/04 A3033 RMK AO2 SLP273 T01220039

More Conditions Fewer Conditions

Pressure 30.34 in
Visibility 10.0 miles
Clouds Clear
Dew Point 42 °F
Humidity 62%
Rainfall 0.00 in
Snow Depth Not available.
UV 0 out of 12
Pollen 3.00 out of 12
PM2.5 Good
Flu Activity Not available.
METAR KALB 200051Z 14003KT 10SM CLR 12/04 A3033 RMK AO2 SLP273 T01220039

More Conditions Fewer Conditions

10-Day Weather Forecast

Almanac

Astronomy

Sep. 19, 2014 Rise Set
Actual Time 6:39 AM EDT 6:57 PM EDT
Civil Twilight 6:10 AM EDT 7:25 PM EDT
Nautical Twilight 5:37 AM EDT 7:59 PM EDT
Astronomical Twilight 5:03 AM EDT 8:32 PM EDT
Moon 2:17 AM EDT (9/19) 4:28 PM EDT (9/19)
Length of Visible Light 13h 15m
Length of Day
12h 18m
Tomorrow will be 2m 51s shorter.
Waning Crescent, 15% of the Moon is Illuminated
Today
Waning Crescent
Sep 24
New
Oct 1
First Quarter
Oct 8
Full
Oct 15
Last Quarter

Today's Extremes

State Highs State Lows

Community

WunderPhotos

Upload Photos

1,754,756 photos uploaded!

WunderBlogs® & News

Nearby

Air Quality

  Air Quality AQ Index Pollutant
Yesterday Good
PM2.5
Yesterday Good
OZONE
Current Good
PM2.5
Friday Good
OZONE
Friday Good
PM2.5
Saturday Good
OZONE
Saturday Good
PM2.5
Sunday Good
OZONE
Sunday Good
PM2.5
Monday Good
OZONE
Monday Good
PM2.5

Snow Depth

Station Depth Elevation
No new snow has been reported.

Earthquake Activity

City Distance Mag. Time & Date
No recent earthquake activity has been reported nearby.
Minimum magnitude displayed is 2.5.

Coastal Water Temperatures

Place Temperature
No Stations Reporting

Nearby Weather Stations